sensor_id;sensor_type;location;lat;lon;timestamp;pressure;altitude;pressure_sealevel;temperature;humidity
5814;BME280;2933;52.302;8.134;2023-01-28T00:01:27;101800.94;;;0.15;96.57
5814;BME280;2933;52.302;8.134;2023-01-28T00:06:29;101783.78;;;0.12;96.19
5814;BME280;2933;52.302;8.134;2023-01-28T00:11:31;101779.50;;;0.08;96.08
5814;BME280;2933;52.302;8.134;2023-01-28T00:16:32;101796.69;;;0.23;96.75
5814;BME280;2933;52.302;8.134;2023-01-28T00:21:35;101780.34;;;0.03;96.22
5814;BME280;2933;52.302;8.134;2023-01-28T00:26:37;101792.38;;;0.14;96.27
5814;BME280;2933;52.302;8.134;2023-01-28T00:31:39;101800.13;;;0.24;95.78
5814;BME280;2933;52.302;8.134;2023-01-28T00:36:42;101809.50;;;0.14;95.73
5814;BME280;2933;52.302;8.134;2023-01-28T00:41:44;101784.59;;;-0.06;95.60
5814;BME280;2933;52.302;8.134;2023-01-28T00:46:46;101798.31;;;0.01;95.85
5814;BME280;2933;52.302;8.134;2023-01-28T00:51:49;101801.78;;;0.08;96.23
5814;BME280;2933;52.302;8.134;2023-01-28T00:56:50;101794.03;;;0.02;98.00
5814;BME280;2933;52.302;8.134;2023-01-28T01:01:53;101794.06;;;0.08;97.79
5814;BME280;2933;52.302;8.134;2023-01-28T01:07:13;101794.03;;;0.03;97.62
5814;BME280;2933;52.302;8.134;2023-01-28T01:12:14;101800.81;;;-0.11;99.46
5814;BME280;2933;52.302;8.134;2023-01-28T01:17:17;101797.44;;;-0.04;98.58
5814;BME280;2933;52.302;8.134;2023-01-28T01:22:20;101799.97;;;-0.09;97.39
5814;BME280;2933;52.302;8.134;2023-01-28T01:27:22;101806.00;;;-0.07;96.52
5814;BME280;2933;52.302;8.134;2023-01-28T01:32:28;101801.69;;;-0.08;97.26
5814;BME280;2933;52.302;8.134;2023-01-28T01:37:31;101796.59;;;-0.06;97.00
5814;BME280;2933;52.302;8.134;2023-01-28T01:42:33;101799.16;;;-0.05;98.54
5814;BME280;2933;52.302;8.134;2023-01-28T01:47:39;101799.16;;;-0.02;97.40
5814;BME280;2933;52.302;8.134;2023-01-28T01:52:44;101807.78;;;0.13;97.31
5814;BME280;2933;52.302;8.134;2023-01-28T01:57:48;101802.53;;;-0.09;96.17
5814;BME280;2933;52.302;8.134;2023-01-28T02:02:51;101804.22;;;-0.20;96.38
5814;BME280;2933;52.302;8.134;2023-01-28T02:07:57;101809.44;;;-0.05;98.23
5814;BME280;2933;52.302;8.134;2023-01-28T02:13:22;101817.13;;;-0.09;97.77
5814;BME280;2933;52.302;8.134;2023-01-28T02:18:24;101810.25;;;-0.13;98.19
5814;BME280;2933;52.302;8.134;2023-01-28T02:23:45;101807.63;;;-0.27;99.78
5814;BME280;2933;52.302;8.134;2023-01-28T02:28:59;101810.19;;;-0.24;99.66
5814;BME280;2933;52.302;8.134;2023-01-28T02:34:06;101809.34;;;-0.23;100.00
5814;BME280;2933;52.302;8.134;2023-01-28T02:39:12;101809.41;;;-0.11;100.00
5814;BME280;2933;52.302;8.134;2023-01-28T02:44:17;101819.66;;;-0.15;97.50
5814;BME280;2933;52.302;8.134;2023-01-28T02:49:22;101816.19;;;-0.22;97.19
5814;BME280;2933;52.302;8.134;2023-01-28T02:54:33;101795.56;;;-0.38;96.71
5814;BME280;2933;52.302;8.134;2023-01-28T02:59:41;101806.75;;;-0.29;98.33
5814;BME280;2933;52.302;8.134;2023-01-28T03:04:48;101792.16;;;-0.35;96.82
5814;BME280;2933;52.302;8.134;2023-01-28T03:09:55;101807.63;;;-0.21;97.19
5814;BME280;2933;52.302;8.134;2023-01-28T03:15:05;101801.56;;;-0.34;98.80
5814;BME280;2933;52.302;8.134;2023-01-28T03:20:33;101801.59;;;-0.29;98.57
5814;BME280;2933;52.302;8.134;2023-01-28T03:25:54;101796.47;;;-0.31;98.93
5814;BME280;2933;52.302;8.134;2023-01-28T03:31:19;101792.19;;;-0.30;97.66
5814;BME280;2933;52.302;8.134;2023-01-28T03:36:39;101804.13;;;-0.34;97.39
5814;BME280;2933;52.302;8.134;2023-01-28T03:41:59;101809.25;;;-0.42;97.33
5814;BME280;2933;52.302;8.134;2023-01-28T03:47:02;101793.00;;;-0.36;97.53
5814;BME280;2933;52.302;8.134;2023-01-28T03:52:06;101824.66;;;-0.43;98.20
5814;BME280;2933;52.302;8.134;2023-01-28T03:57:08;101814.34;;;-0.50;97.69
5814;BME280;2933;52.302;8.134;2023-01-28T04:02:11;101821.16;;;-0.53;97.40
5814;BME280;2933;52.302;8.134;2023-01-28T04:07:13;101827.94;;;-0.63;98.46
5814;BME280;2933;52.302;8.134;2023-01-28T04:12:15;101827.94;;;-0.64;98.59
5814;BME280;2933;52.302;8.134;2023-01-28T04:17:19;101832.19;;;-0.65;97.96
5814;BME280;2933;52.302;8.134;2023-01-28T04:22:20;101844.16;;;-0.66;98.60
5814;BME280;2933;52.302;8.134;2023-01-28T04:27:22;101836.41;;;-0.70;98.19
5814;BME280;2933;52.302;8.134;2023-01-28T04:32:25;101836.47;;;-0.62;99.46
5814;BME280;2933;52.302;8.134;2023-01-28T04:37:26;101823.63;;;-0.67;98.82
5814;BME280;2933;52.302;8.134;2023-01-28T04:42:28;101821.91;;;-0.67;97.35
5814;BME280;2933;52.302;8.134;2023-01-28T04:47:31;101828.75;;;-0.67;96.19
5814;BME280;2933;52.302;8.134;2023-01-28T04:52:32;101824.44;;;-0.71;95.13
5814;BME280;2933;52.302;8.134;2023-01-28T04:57:34;101841.47;;;-0.83;94.36
5814;BME280;2933;52.302;8.134;2023-01-28T05:02:37;101829.53;;;-0.76;94.06
5814;BME280;2933;52.302;8.134;2023-01-28T05:07:38;101838.97;;;-0.73;93.99
5814;BME280;2933;52.302;8.134;2023-01-28T05:12:39;101842.41;;;-0.70;94.60
5814;BME280;2933;52.302;8.134;2023-01-28T05:17:45;101844.91;;;-0.76;92.38
5814;BME280;2933;52.302;8.134;2023-01-28T05:22:47;101835.44;;;-0.86;91.80
5814;BME280;2933;52.302;8.134;2023-01-28T05:27:49;101846.66;;;-0.75;90.67
5814;BME280;2933;52.302;8.134;2023-01-28T05:32:55;101839.00;;;-0.69;92.67
5814;BME280;2933;52.302;8.134;2023-01-28T05:37:57;101837.22;;;-0.76;94.45
5814;BME280;2933;52.302;8.134;2023-01-28T05:42:59;101830.50;;;-0.60;92.22
5814;BME280;2933;52.302;8.134;2023-01-28T05:48:02;101844.22;;;-0.61;91.17
5814;BME280;2933;52.302;8.134;2023-01-28T05:53:04;101818.44;;;-0.72;93.39
5814;BME280;2933;52.302;8.134;2023-01-28T05:58:06;101826.91;;;-0.85;89.68
5814;BME280;2933;52.302;8.134;2023-01-28T06:03:08;101818.44;;;-0.72;90.19
5814;BME280;2933;52.302;8.134;2023-01-28T06:08:10;101820.88;;;-0.87;90.71
5814;BME280;2933;52.302;8.134;2023-01-28T06:13:11;101828.50;;;-0.98;92.35
5814;BME280;2933;52.302;8.134;2023-01-28T06:18:14;101819.16;;;-0.90;92.81
5814;BME280;2933;52.302;8.134;2023-01-28T06:23:16;101826.91;;;-0.84;92.34
5814;BME280;2933;52.302;8.134;2023-01-28T06:28:18;101833.75;;;-0.83;92.20
5814;BME280;2933;52.302;8.134;2023-01-28T06:33:21;101802.94;;;-0.87;91.42
5814;BME280;2933;52.302;8.134;2023-01-28T06:38:23;101814.00;;;-0.93;90.55
5814;BME280;2933;52.302;8.134;2023-01-28T06:43:25;101798.56;;;-1.01;89.57
5814;BME280;2933;52.302;8.134;2023-01-28T06:48:31;101827.78;;;-0.80;89.36
5814;BME280;2933;52.302;8.134;2023-01-28T06:53:32;101837.16;;;-0.85;89.74
5814;BME280;2933;52.302;8.134;2023-01-28T06:58:34;101851.56;;;-1.00;90.91
5814;BME280;2933;52.302;8.134;2023-01-28T07:03:37;101852.63;;;-0.77;89.42
5814;BME280;2933;52.302;8.134;2023-01-28T07:08:38;101856.00;;;-0.83;88.48
5814;BME280;2933;52.302;8.134;2023-01-28T07:13:40;101852.50;;;-0.91;92.42
5814;BME280;2933;52.302;8.134;2023-01-28T07:18:44;101854.94;;;-1.05;88.67
5814;BME280;2933;52.302;8.134;2023-01-28T07:23:45;101845.59;;;-1.02;89.79
5814;BME280;2933;52.302;8.134;2023-01-28T07:28:47;101847.97;;;-1.19;89.10
5814;BME280;2933;52.302;8.134;2023-01-28T07:33:49;101860.06;;;-1.07;87.86
5814;BME280;2933;52.302;8.134;2023-01-28T07:38:51;101864.31;;;-1.10;90.63
5814;BME280;2933;52.302;8.134;2023-01-28T07:43:52;101872.91;;;-1.02;90.16
5814;BME280;2933;52.302;8.134;2023-01-28T07:48:55;101871.34;;;-0.86;90.14
5814;BME280;2933;52.302;8.134;2023-01-28T07:53:57;101878.28;;;-0.77;88.25
5814;BME280;2933;52.302;8.134;2023-01-28T07:58:59;101883.28;;;-0.93;88.24
5814;BME280;2933;52.302;8.134;2023-01-28T08:04:01;101892.88;;;-0.72;88.81
5814;BME280;2933;52.302;8.134;2023-01-28T08:09:03;101893.84;;;-0.57;87.70
5814;BME280;2933;52.302;8.134;2023-01-28T08:14:08;101912.69;;;-0.58;86.40
5814;BME280;2933;52.302;8.134;2023-01-28T08:19:11;101912.63;;;-0.64;86.94
5814;BME280;2933;52.302;8.134;2023-01-28T08:24:13;101933.94;;;-0.70;87.43
5814;BME280;2933;52.302;8.134;2023-01-28T08:29:14;101941.69;;;-0.67;86.90
5814;BME280;2933;52.302;8.134;2023-01-28T08:34:17;101951.00;;;-0.77;88.54
5814;BME280;2933;52.302;8.134;2023-01-28T08:39:19;101952.69;;;-0.77;87.85
5814;BME280;2933;52.302;8.134;2023-01-28T08:44:20;101962.00;;;-0.87;88.11
5814;BME280;2933;52.302;8.134;2023-01-28T08:49:23;101958.47;;;-0.99;88.31
5814;BME280;2933;52.302;8.134;2023-01-28T08:54:25;101963.78;;;-0.78;89.05
5814;BME280;2933;52.302;8.134;2023-01-28T08:59:26;101956.16;;;-0.74;88.11
5814;BME280;2933;52.302;8.134;2023-01-28T09:04:30;101961.88;;;-1.00;88.85
5814;BME280;2933;52.302;8.134;2023-01-28T09:09:31;101961.09;;;-0.92;88.87
5814;BME280;2933;52.302;8.134;2023-01-28T09:14:33;101972.44;;;-0.73;89.74
5814;BME280;2933;52.302;8.134;2023-01-28T09:19:35;101991.25;;;-0.73;88.91
5814;BME280;2933;52.302;8.134;2023-01-28T09:24:37;101986.13;;;-0.71;87.33
5814;BME280;2933;52.302;8.134;2023-01-28T09:29:38;101978.19;;;-0.94;88.03
5814;BME280;2933;52.302;8.134;2023-01-28T09:34:41;101978.59;;;-0.51;88.89
5814;BME280;2933;52.302;8.134;2023-01-28T09:39:43;101986.28;;;-0.53;85.78
5814;BME280;2933;52.302;8.134;2023-01-28T09:44:56;101951.97;;;-0.64;86.81
5814;BME280;2933;52.302;8.134;2023-01-28T09:50:05;101988.19;;;-0.35;86.30
5814;BME280;2933;52.302;8.134;2023-01-28T09:55:14;101974.34;;;-0.52;85.90
5814;BME280;2933;52.302;8.134;2023-01-28T10:00:20;101986.31;;;-0.51;85.08
5814;BME280;2933;52.302;8.134;2023-01-28T10:05:29;101997.63;;;-0.32;84.95
5814;BME280;2933;52.302;8.134;2023-01-28T10:10:36;101993.31;;;-0.35;84.61
5814;BME280;2933;52.302;8.134;2023-01-28T10:15:48;101998.66;;;-0.08;87.05
5814;BME280;2933;52.302;8.134;2023-01-28T10:20:54;102000.44;;;0.02;89.04
5814;BME280;2933;52.302;8.134;2023-01-28T10:25:58;102010.03;;;0.26;85.32
5814;BME280;2933;52.302;8.134;2023-01-28T10:31:10;101999.81;;;0.34;84.54
5814;BME280;2933;52.302;8.134;2023-01-28T10:36:14;101997.31;;;0.50;82.56
5814;BME280;2933;52.302;8.134;2023-01-28T10:41:20;101987.03;;;0.48;82.85
5814;BME280;2933;52.302;8.134;2023-01-28T10:46:26;101963.00;;;0.43;83.15
5814;BME280;2933;52.302;8.134;2023-01-28T10:51:32;101967.31;;;0.55;85.12
5814;BME280;2933;52.302;8.134;2023-01-28T10:56:34;101955.31;;;0.47;85.21
5814;BME280;2933;52.302;8.134;2023-01-28T11:01:43;101948.41;;;0.42;83.29
5814;BME280;2933;52.302;8.134;2023-01-28T11:06:55;101958.75;;;0.53;82.44
5814;BME280;2933;52.302;8.134;2023-01-28T11:12:08;101956.28;;;0.71;83.62
5814;BME280;2933;52.302;8.134;2023-01-28T11:17:15;101945.16;;;0.82;83.58
5814;BME280;2933;52.302;8.134;2023-01-28T11:22:23;101922.84;;;0.80;84.05
5814;BME280;2933;52.302;8.134;2023-01-28T11:27:29;101938.31;;;0.85;82.89
5814;BME280;2933;52.302;8.134;2023-01-28T11:32:31;101945.16;;;0.82;83.84
5814;BME280;2933;52.302;8.134;2023-01-28T11:37:34;101915.94;;;0.67;83.46
5814;BME280;2933;52.302;8.134;2023-01-28T11:42:37;101927.16;;;0.78;82.28
5814;BME280;2933;52.302;8.134;2023-01-28T11:47:48;101898.84;;;0.86;83.77
5814;BME280;2933;52.302;8.134;2023-01-28T11:52:59;101892.00;;;0.85;84.19
5814;BME280;2933;52.302;8.134;2023-01-28T11:58:10;101865.44;;;1.00;83.86
5814;BME280;2933;52.302;8.134;2023-01-28T12:03:26;101850.84;;;1.10;82.85
5814;BME280;2933;52.302;8.134;2023-01-28T12:08:40;101835.41;;;1.28;83.82
5814;BME280;2933;52.302;8.134;2023-01-28T12:13:53;101841.41;;;1.44;83.75
5814;BME280;2933;52.302;8.134;2023-01-28T12:19:07;101856.84;;;1.57;81.23
5814;BME280;2933;52.302;8.134;2023-01-28T12:24:25;101828.56;;;1.24;82.23
5814;BME280;2933;52.302;8.134;2023-01-28T12:29:34;101837.13;;;1.33;83.00
5814;BME280;2933;52.302;8.134;2023-01-28T12:35:09;101852.56;;;1.06;83.82
5814;BME280;2933;52.302;8.134;2023-01-28T12:45:56;101847.44;;;1.11;83.63
5814;BME280;2933;52.302;8.134;2023-01-28T12:51:02;101855.13;;;1.16;83.63
5814;BME280;2933;52.302;8.134;2023-01-28T12:56:09;101855.97;;;1.13;83.03
5814;BME280;2933;52.302;8.134;2023-01-28T13:01:20;101856.84;;;1.07;83.50
5814;BME280;2933;52.302;8.134;2023-01-28T13:06:28;101864.59;;;1.24;82.66
5814;BME280;2933;52.302;8.134;2023-01-28T13:11:36;101861.16;;;1.21;83.61
5814;BME280;2933;52.302;8.134;2023-01-28T13:16:38;101857.72;;;1.42;84.02
5814;BME280;2933;52.302;8.134;2023-01-28T13:21:40;101857.72;;;1.39;82.44
5814;BME280;2933;52.302;8.134;2023-01-28T13:26:44;101874.00;;;1.59;83.73
5814;BME280;2933;52.302;8.134;2023-01-28T13:31:47;101825.09;;;1.30;83.94
5814;BME280;2933;52.302;8.134;2023-01-28T13:36:49;101842.25;;;1.51;85.42
5814;BME280;2933;52.302;8.134;2023-01-28T13:41:54;101819.91;;;1.66;84.78
5814;BME280;2933;52.302;8.134;2023-01-28T13:46:59;101813.00;;;1.74;83.43
5814;BME280;2933;52.302;8.134;2023-01-28T13:52:15;101787.28;;;1.55;82.63
5814;BME280;2933;52.302;8.134;2023-01-28T14:03:19;101795.00;;;1.60;84.51
5814;BME280;2933;52.302;8.134;2023-01-28T14:08:50;101799.25;;;1.76;84.17
5814;BME280;2933;52.302;8.134;2023-01-28T14:14:10;101818.16;;;1.68;82.58
5814;BME280;2933;52.302;8.134;2023-01-28T14:19:25;101817.34;;;1.44;83.45
5814;BME280;2933;52.302;8.134;2023-01-28T14:24:30;101821.66;;;1.42;82.94
5814;BME280;2933;52.302;8.134;2023-01-28T14:29:41;101819.09;;;1.37;83.07
5814;BME280;2933;52.302;8.134;2023-01-28T14:34:46;101831.97;;;1.39;83.71
5814;BME280;2933;52.302;8.134;2023-01-28T14:39:51;101817.38;;;1.35;83.61
5814;BME280;2933;52.302;8.134;2023-01-28T14:45:05;101830.25;;;1.39;83.60
5814;BME280;2933;52.302;8.134;2023-01-28T14:50:24;101828.53;;;1.26;84.13
5814;BME280;2933;52.302;8.134;2023-01-28T14:55:33;101844.84;;;1.36;84.60
5814;BME280;2933;52.302;8.134;2023-01-28T15:00:36;101837.13;;;1.31;85.61
5814;BME280;2933;52.302;8.134;2023-01-28T15:05:40;101851.69;;;1.17;86.48
5814;BME280;2933;52.302;8.134;2023-01-28T15:10:41;101852.56;;;1.26;85.54
5814;BME280;2933;52.302;8.134;2023-01-28T15:15:46;101849.97;;;1.16;85.63
5814;BME280;2933;52.302;8.134;2023-01-28T15:20:51;101865.44;;;1.14;86.66
5814;BME280;2933;52.302;8.134;2023-01-28T15:25:54;101839.69;;;1.19;87.68
5814;BME280;2933;52.302;8.134;2023-01-28T15:30:56;101846.56;;;1.07;89.51
5814;BME280;2933;52.302;8.134;2023-01-28T15:36:00;101857.72;;;0.99;89.31
5814;BME280;2933;52.302;8.134;2023-01-28T15:41:04;101867.13;;;1.04;88.38
5814;BME280;2933;52.302;8.134;2023-01-28T15:46:09;101880.88;;;0.97;89.92
5814;BME280;2933;52.302;8.134;2023-01-28T15:51:19;101889.41;;;0.87;89.19
5814;BME280;2933;52.302;8.134;2023-01-28T15:56:24;101888.56;;;0.92;88.82
5814;BME280;2933;52.302;8.134;2023-01-28T16:01:26;101901.41;;;0.74;91.64
5814;BME280;2933;52.302;8.134;2023-01-28T16:06:32;101892.81;;;0.69;90.88
5814;BME280;2933;52.302;8.134;2023-01-28T16:11:36;101892.78;;;0.67;90.38
5814;BME280;2933;52.302;8.134;2023-01-28T16:16:46;101872.22;;;0.72;91.08
5814;BME280;2933;52.302;8.134;2023-01-28T16:21:49;101875.63;;;0.58;91.99
5814;BME280;2933;52.302;8.134;2023-01-28T16:26:55;101865.28;;;0.40;92.52
5814;BME280;2933;52.302;8.134;2023-01-28T16:31:57;101859.25;;;0.30;93.92
5814;BME280;2933;52.302;8.134;2023-01-28T16:37:01;101862.69;;;0.29;95.27
5814;BME280;2933;52.302;8.134;2023-01-28T16:42:03;101853.28;;;0.32;93.75
5814;BME280;2933;52.302;8.134;2023-01-28T16:47:05;101839.53;;;0.23;94.15
5814;BME280;2933;52.302;8.134;2023-01-28T16:52:10;101860.03;;;0.09;95.37
5814;BME280;2933;52.302;8.134;2023-01-28T16:57:13;101838.50;;;-0.13;96.08
5814;BME280;2933;52.302;8.134;2023-01-28T17:02:15;101832.47;;;-0.25;96.91
5814;BME280;2933;52.302;8.134;2023-01-28T17:07:19;101859.91;;;-0.11;96.81
5814;BME280;2933;52.302;8.134;2023-01-28T17:12:20;101871.03;;;-0.19;97.52
5814;BME280;2933;52.302;8.134;2023-01-28T17:17:22;101871.81;;;-0.27;98.04
5814;BME280;2933;52.302;8.134;2023-01-28T17:22:25;101873.38;;;-0.48;97.82
5814;BME280;2933;52.302;8.134;2023-01-28T17:27:26;101871.59;;;-0.55;99.29
5814;BME280;2933;52.302;8.134;2023-01-28T17:32:28;101886.03;;;-0.73;100.00
5814;BME280;2933;52.302;8.134;2023-01-28T17:37:31;101884.06;;;-1.02;100.00
5814;BME280;2933;52.302;8.134;2023-01-28T17:42:32;101876.94;;;-1.29;100.00
5814;BME280;2933;52.302;8.134;2023-01-28T17:47:34;101892.47;;;-1.14;100.00
5814;BME280;2933;52.302;8.134;2023-01-28T17:52:37;101892.31;;;-1.29;100.00
5814;BME280;2933;52.302;8.134;2023-01-28T17:57:42;101883.66;;;-1.40;100.00
5814;BME280;2933;52.302;8.134;2023-01-28T18:02:44;101904.19;;;-1.37;100.00
5814;BME280;2933;52.302;8.134;2023-01-28T18:07:50;101904.81;;;-1.57;100.00
5814;BME280;2933;52.302;8.134;2023-01-28T18:12:51;101916.84;;;-1.53;100.00
5814;BME280;2933;52.302;8.134;2023-01-28T18:17:53;101913.47;;;-1.49;100.00
5814;BME280;2933;52.302;8.134;2023-01-28T18:22:56;101925.53;;;-1.38;100.00
5814;BME280;2933;52.302;8.134;2023-01-28T18:27:58;101924.16;;;-1.08;100.00
5814;BME280;2933;52.302;8.134;2023-01-28T18:32:59;101930.25;;;-0.99;100.00
5814;BME280;2933;52.302;8.134;2023-01-28T18:38:02;101918.34;;;-0.92;100.00
5814;BME280;2933;52.302;8.134;2023-01-28T18:43:04;101933.06;;;-0.72;100.00
5814;BME280;2933;52.302;8.134;2023-01-28T18:48:05;101914.31;;;-0.68;100.00
5814;BME280;2933;52.302;8.134;2023-01-28T18:53:08;101925.56;;;-0.49;100.00
5814;BME280;2933;52.302;8.134;2023-01-28T18:58:09;101932.38;;;-0.54;100.00
5814;BME280;2933;52.302;8.134;2023-01-28T19:03:11;101929.03;;;-0.44;100.00
5814;BME280;2933;52.302;8.134;2023-01-28T19:08:14;101932.50;;;-0.39;100.00
5814;BME280;2933;52.302;8.134;2023-01-28T19:13:16;101935.94;;;-0.38;100.00
5814;BME280;2933;52.302;8.134;2023-01-28T19:18:17;101947.88;;;-0.40;100.00
5814;BME280;2933;52.302;8.134;2023-01-28T19:23:20;101944.56;;;-0.27;100.00
5814;BME280;2933;52.302;8.134;2023-01-28T19:28:22;101934.22;;;-0.38;100.00
5814;BME280;2933;52.302;8.134;2023-01-28T19:33:23;101933.47;;;-0.24;100.00
5814;BME280;2933;52.302;8.134;2023-01-28T19:38:27;101917.16;;;-0.29;100.00
5814;BME280;2933;52.302;8.134;2023-01-28T19:43:28;101897.44;;;-0.35;100.00
5814;BME280;2933;52.302;8.134;2023-01-28T19:48:30;101918.06;;;-0.23;100.00
5814;BME280;2933;52.302;8.134;2023-01-28T19:53:34;101917.19;;;-0.26;100.00
5814;BME280;2933;52.302;8.134;2023-01-28T19:58:38;101898.31;;;-0.31;100.00
5814;BME280;2933;52.302;8.134;2023-01-28T20:03:40;101904.38;;;-0.25;100.00
5814;BME280;2933;52.302;8.134;2023-01-28T20:08:43;101900.09;;;-0.21;100.00
5814;BME280;2933;52.302;8.134;2023-01-28T20:13:46;101895.81;;;-0.19;100.00
5814;BME280;2933;52.302;8.134;2023-01-28T20:18:49;101890.66;;;-0.27;100.00
5814;BME280;2933;52.302;8.134;2023-01-28T20:23:53;101893.22;;;-0.28;100.00
5814;BME280;2933;52.302;8.134;2023-01-28T20:28:54;101892.38;;;-0.26;100.00
5814;BME280;2933;52.302;8.134;2023-01-28T20:33:56;101890.66;;;-0.27;100.00
5814;BME280;2933;52.302;8.134;2023-01-28T20:38:59;101892.38;;;-0.23;100.00
5814;BME280;2933;52.302;8.134;2023-01-28T20:44:00;101892.41;;;-0.20;100.00
5814;BME280;2933;52.302;8.134;2023-01-28T20:49:02;101879.56;;;-0.18;100.00
5814;BME280;2933;52.302;8.134;2023-01-28T20:54:07;101880.44;;;-0.13;100.00
5814;BME280;2933;52.302;8.134;2023-01-28T20:59:09;101864.97;;;-0.25;100.00
5814;BME280;2933;52.302;8.134;2023-01-28T21:04:12;101879.59;;;-0.12;100.00
5814;BME280;2933;52.302;8.134;2023-01-28T21:09:15;101877.03;;;-0.10;100.00
5814;BME280;2933;52.302;8.134;2023-01-28T21:14:16;101882.97;;;-0.18;100.00
5814;BME280;2933;52.302;8.134;2023-01-28T21:19:18;101875.28;;;-0.22;100.00
5814;BME280;2933;52.302;8.134;2023-01-28T21:24:21;101889.00;;;-0.17;100.00
5814;BME280;2933;52.302;8.134;2023-01-28T21:29:22;101889.88;;;-0.10;100.00
5814;BME280;2933;52.302;8.134;2023-01-28T21:34:24;101883.81;;;-0.22;100.00
5814;BME280;2933;52.302;8.134;2023-01-28T21:39:27;101880.50;;;-0.10;100.00
5814;BME280;2933;52.302;8.134;2023-01-28T21:44:28;101868.50;;;-0.12;100.00
5814;BME280;2933;52.302;8.134;2023-01-28T21:49:32;101871.88;;;-0.17;100.00
5814;BME280;2933;52.302;8.134;2023-01-28T21:54:35;101883.91;;;-0.12;100.00
5814;BME280;2933;52.302;8.134;2023-01-28T21:59:37;101873.59;;;-0.19;100.00
5814;BME280;2933;52.302;8.134;2023-01-28T22:04:41;101858.97;;;-0.24;100.00
5814;BME280;2933;52.302;8.134;2023-01-28T22:09:45;101867.66;;;-0.07;100.00
5814;BME280;2933;52.302;8.134;2023-01-28T22:14:47;101853.09;;;-0.06;100.00
5814;BME280;2933;52.302;8.134;2023-01-28T22:19:49;101861.63;;;-0.09;100.00
5814;BME280;2933;52.302;8.134;2023-01-28T22:24:52;101871.06;;;-0.12;100.00
5814;BME280;2933;52.302;8.134;2023-01-28T22:29:53;101867.59;;;-0.13;100.00
5814;BME280;2933;52.302;8.134;2023-01-28T22:34:56;101853.06;;;-0.12;100.00
5814;BME280;2933;52.302;8.134;2023-01-28T22:40:00;101850.47;;;-0.14;100.00
5814;BME280;2933;52.302;8.134;2023-01-28T22:45:02;101843.56;;;-0.21;100.00
5814;BME280;2933;52.302;8.134;2023-01-28T22:50:04;101846.16;;;-0.21;100.00
5814;BME280;2933;52.302;8.134;2023-01-28T22:55:08;101853.88;;;-0.15;100.00
5814;BME280;2933;52.302;8.134;2023-01-28T23:00:12;101843.50;;;-0.37;100.00
5814;BME280;2933;52.302;8.134;2023-01-28T23:05:14;101838.41;;;-0.30;100.00
5814;BME280;2933;52.302;8.134;2023-01-28T23:10:18;101836.75;;;-0.22;100.00
5814;BME280;2933;52.302;8.134;2023-01-28T23:15:19;101840.16;;;-0.20;100.00
5814;BME280;2933;52.302;8.134;2023-01-28T23:20:39;101831.50;;;-0.38;100.00
5814;BME280;2933;52.302;8.134;2023-01-28T23:25:59;101831.63;;;-0.22;100.00
5814;BME280;2933;52.302;8.134;2023-01-28T23:31:01;101819.53;;;-0.36;100.00
5814;BME280;2933;52.302;8.134;2023-01-28T23:36:03;101818.75;;;-0.24;100.00
5814;BME280;2933;52.302;8.134;2023-01-28T23:41:06;101829.94;;;-0.14;100.00
5814;BME280;2933;52.302;8.134;2023-01-28T23:46:08;101828.19;;;-0.18;100.00
5814;BME280;2933;52.302;8.134;2023-01-28T23:51:09;101821.38;;;-0.14;100.00
5814;BME280;2933;52.302;8.134;2023-01-28T23:56:12;101814.47;;;-0.20;100.00
